Time;durP1;ratioP1;P1;durP2;ratioP2;P2;SDS_P1;SDS_P2;PMS_P1;PMS_P2;Temp;Humidity;BMP_temperature;BMP_pressure;BME280_temperature;BME280_humidity;BME280_pressure;Samples;Min_cycle;Max_cycle;Signal;HPM_P1;HPM_P2
2022/05/29 00:01:08;;;;;;;6.20;2.00;;;;;;;8.34;69.34;98281.43;433255;1269;108867;-42
2022/05/29 00:11:16;;;;;;;6.00;2.30;;;;;;;8.30;69.41;98279.08;433207;1270;97945;-40
2022/05/29 00:21:25;;;;;;;9.80;3.40;;;;;;;8.19;69.62;98273.58;433224;1269;111354;-40
2022/05/29 00:31:33;;;;;;;6.00;2.50;;;;;;;8.07;69.89;98265.84;433256;1269;108870;-41
2022/05/29 00:41:41;;;;;;;7.40;2.60;;;;;;;7.97;70.15;98262.40;433289;1269;97925;-44
2022/05/29 00:51:48;;;;;;;3.70;2.10;;;;;;;8.05;70.30;98259.23;433308;1269;110927;-40
2022/05/29 01:01:57;;;;;;;4.10;2.70;;;;;;;8.08;70.20;98247.48;433116;1270;108947;-40
2022/05/29 01:12:06;;;;;;;10.70;2.60;;;;;;;7.89;70.09;98238.12;433867;1261;97900;-43
2022/05/29 01:22:19;;;;;;;8.80;3.50;;;;;;;7.68;70.46;98231.79;433429;1269;108844;-41
2022/05/29 01:32:35;;;;;;;7.70;2.90;;;;;;;7.46;70.65;98229.38;433240;1269;97928;-41
2022/05/29 01:42:48;;;;;;;11.50;2.60;;;;;;;7.29;70.64;98236.60;433204;1270;111135;-41
2022/05/29 01:53:08;;;;;;;7.80;1.80;;;;;;;7.24;70.74;98227.67;433321;1269;108862;-41
2022/05/29 02:03:19;;;;;;;4.30;1.90;;;;;;;7.18;71.02;98224.75;433312;1271;97941;-41
2022/05/29 02:13:31;;;;;;;8.90;4.40;;;;;;;7.09;71.30;98220.87;433044;1271;108626;-40
2022/05/29 02:23:36;;;;;;;6.10;3.00;;;;;;;6.93;71.58;98230.15;433176;1271;98012;-41
2022/05/29 02:33:46;;;;;;;5.50;2.10;;;;;;;6.95;71.71;98231.91;433179;1271;109782;-42
2022/05/29 02:43:55;;;;;;;2.00;1.60;;;;;;;7.11;71.88;98241.39;433153;1270;107672;-40
2022/05/29 03:14:19;;;;;;;10.30;3.70;;;;;;;7.38;71.82;98256.96;433389;1270;108861;-40
2022/05/29 03:24:28;;;;;;;12.00;4.20;;;;;;;7.73;71.57;98262.50;433407;1270;97965;-40
2022/05/29 03:34:35;;;;;;;11.50;2.60;;;;;;;9.76;70.56;98262.80;433163;1268;97896;-41
2022/05/29 03:44:42;;;;;;;7.30;2.40;;;;;;;11.96;69.18;98254.83;433273;1269;111216;-41
2022/05/29 03:54:52;;;;;;;6.60;2.50;;;;;;;13.49;67.61;98257.27;433248;1270;108808;-42
2022/05/29 04:04:59;;;;;;;4.50;2.40;;;;;;;15.22;66.14;98254.41;433294;1270;97932;-41
2022/05/29 04:15:04;;;;;;;6.70;2.10;;;;;;;16.64;64.39;98265.67;433161;1270;111253;-41
2022/05/29 04:25:09;;;;;;;6.40;2.00;;;;;;;17.79;62.76;98269.01;433164;1270;97042;-40
2022/05/29 04:35:17;;;;;;;7.10;2.30;;;;;;;18.52;61.18;98265.41;433249;1270;97024;-40
2022/05/29 04:45:26;;;;;;;4.90;2.00;;;;;;;18.66;59.26;98260.23;433413;1269;111146;-42
2022/05/29 04:55:34;;;;;;;6.70;1.50;;;;;;;18.65;58.33;98257.79;433263;1270;108867;-42
2022/05/29 05:05:41;;;;;;;4.70;1.70;;;;;;;18.25;57.09;98265.34;433294;1270;97916;-42
2022/05/29 05:15:48;;;;;;;7.70;2.00;;;;;;;18.07;56.24;98269.80;433321;1269;111123;-40
2022/05/29 05:25:56;;;;;;;6.40;1.90;;;;;;;17.76;55.79;98267.79;433359;1269;109130;-43
2022/05/29 05:36:03;;;;;;;8.60;2.10;;;;;;;17.85;55.90;98271.09;433289;1269;97932;-40
2022/05/29 05:46:13;;;;;;;6.20;2.00;;;;;;;17.96;55.21;98272.45;433356;1269;111302;-44
2022/05/29 05:56:20;;;;;;;3.70;1.50;;;;;;;18.02;54.47;98275.86;433335;1269;108864;-42
2022/05/29 06:06:28;;;;;;;4.20;1.60;;;;;;;18.39;54.45;98285.13;433345;1270;97936;-41
2022/05/29 06:16:35;;;;;;;5.40;1.50;;;;;;;18.55;53.69;98289.62;433369;1269;111052;-42
2022/05/29 06:26:42;;;;;;;8.20;1.40;;;;;;;18.35;52.58;98286.47;433192;1270;108745;-41
2022/05/29 06:36:50;;;;;;;4.00;1.40;;;;;;;18.37;51.58;98277.34;433251;1271;97939;-41
2022/05/29 06:46:57;;;;;;;4.70;1.30;;;;;;;18.29;51.13;98278.37;433257;1271;111134;-42
2022/05/29 07:07:15;;;;;;;6.20;2.20;;;;;;;18.64;49.84;98290.11;433393;1270;97906;-45
2022/05/29 07:17:23;;;;;;;3.90;1.40;;;;;;;18.70;49.18;98288.03;433114;1271;111217;-41
2022/05/29 07:27:31;;;;;;;6.40;1.50;;;;;;;18.83;49.25;98287.46;433355;1271;108829;-42
2022/05/29 07:37:37;;;;;;;3.10;1.00;;;;;;;18.75;48.07;98287.56;433332;1270;98002;-41
2022/05/29 07:47:46;;;;;;;3.90;1.20;;;;;;;18.59;48.04;98290.11;433114;1270;108263;-40
2022/05/29 07:57:53;;;;;;;7.30;1.60;;;;;;;18.38;48.26;98293.34;433086;1270;97979;-42
2022/05/29 08:08:04;;;;;;;5.20;1.30;;;;;;;18.26;48.46;98295.03;433233;1269;109637;-41
2022/05/29 08:18:11;;;;;;;3.20;1.20;;;;;;;18.79;47.96;98292.67;432910;1268;108912;-43
2022/05/29 08:38:46;;;;;;;6.40;1.40;;;;;;;18.89;46.52;98284.00;432638;1270;111061;-43
2022/05/29 08:48:57;;;;;;;7.30;1.60;;;;;;;17.92;46.30;98281.96;432678;1270;107213;-40
2022/05/29 09:09:20;;;;;;;6.20;1.70;;;;;;;17.90;47.67;98277.52;432844;1269;109958;-42
2022/05/29 09:29:40;;;;;;;4.80;1.30;;;;;;;18.38;46.24;98277.85;432659;1270;602909;-43
2022/05/29 09:39:48;;;;;;;4.80;1.40;;;;;;;17.91;45.44;98274.49;432992;1269;108903;-41
2022/05/29 09:50:03;;;;;;;3.50;1.50;;;;;;;17.41;45.34;98273.77;433206;1270;97967;-42
2022/05/29 10:00:13;;;;;;;2.00;1.10;;;;;;;17.89;46.29;98265.60;433291;1270;111213;-42
2022/05/29 10:10:29;;;;;;;4.50;1.80;;;;;;;18.65;45.04;98251.20;433217;1269;109310;-45
2022/05/29 10:20:38;;;;;;;5.80;1.40;;;;;;;18.00;45.28;98246.73;432964;1271;97907;-43
2022/05/29 10:30:43;;;;;;;5.30;1.20;;;;;;;17.87;45.67;98231.91;433103;1269;111093;-43
2022/05/29 10:40:54;;;;;;;5.90;1.40;;;;;;;18.12;45.05;98241.55;433081;1270;109424;-44
2022/05/29 10:51:15;;;;;;;3.90;1.40;;;;;;;17.99;44.91;98248.30;432958;1270;98531;-43
2022/05/29 11:11:57;;;;;;;2.60;1.30;;;;;;;18.19;44.96;98243.22;433111;1270;108777;-40
2022/05/29 11:22:06;;;;;;;4.60;1.30;;;;;;;17.94;44.46;98242.52;433187;1270;96678;-46
2022/05/29 11:32:16;;;;;;;6.40;1.60;;;;;;;17.96;44.78;98248.86;433197;1270;111040;-45
2022/05/29 11:42:24;;;;;;;5.00;1.60;;;;;;;17.94;44.73;98238.23;433118;1270;108849;-44
2022/05/29 11:52:29;;;;;;;4.20;1.40;;;;;;;17.61;43.61;98230.90;432675;1270;98590;-42
2022/05/29 12:02:41;;;;;;;5.90;2.50;;;;;;;17.64;44.31;98221.64;433279;1270;96661;-42
2022/05/29 12:12:56;;;;;;;6.40;1.30;;;;;;;17.83;44.02;98216.11;433372;1269;108711;-42
2022/05/29 12:23:04;;;;;;;5.60;1.70;;;;;;;17.93;43.62;98192.45;433163;1269;97846;-45
2022/05/29 12:33:12;;;;;;;12.40;2.10;;;;;;;17.87;43.89;98177.46;433385;1269;111063;-42
2022/05/29 12:43:23;;;;;;;;;;;;;;;17.77;43.79;98166.71;433177;1269;107907;-42
2022/05/29 13:04:29;;;;;;;5.00;1.30;;;;;;;17.26;43.64;98162.17;432622;1269;110054;-40
2022/05/29 13:14:37;;;;;;;6.60;1.80;;;;;;;17.44;43.55;98174.38;433164;1270;108887;-42
2022/05/29 13:24:47;;;;;;;5.50;1.80;;;;;;;17.82;43.82;98177.19;433480;1270;97995;-42
2022/05/29 13:35:34;;;;;;;6.70;2.00;;;;;;;18.53;43.49;98182.18;433485;1271;111136;-43
2022/05/29 14:06:17;;;;;;;5.40;1.30;;;;;;;17.86;41.44;98162.34;433608;1270;110066;-40
2022/05/29 14:16:44;;;;;;;6.20;1.90;;;;;;;17.65;42.39;98160.55;433416;1269;109667;-42
2022/05/29 14:26:59;;;;;;;5.10;1.90;;;;;;;17.33;42.00;98157.98;433386;1269;97928;-41
2022/05/29 14:37:08;;;;;;;3.80;1.40;;;;;;;17.49;42.17;98144.27;433255;1269;111144;-44
2022/05/29 14:47:18;;;;;;;5.00;1.60;;;;;;;17.40;42.38;98139.25;433687;1269;108757;-40
2022/05/29 14:57:30;;;;;;;4.40;1.30;;;;;;;17.44;42.07;98126.05;433471;1269;97457;-44
2022/05/29 15:18:07;;;;;;;3.80;1.40;;;;;;;16.95;41.84;98114.96;433292;1270;109246;-46
2022/05/29 15:28:16;;;;;;;6.00;1.80;;;;;;;16.88;42.50;98108.36;433031;1270;97930;-42
2022/05/29 15:38:28;;;;;;;9.10;1.80;;;;;;;16.98;42.47;98111.02;432969;1269;111378;-45
2022/05/29 15:48:50;;;;;;;4.30;1.40;;;;;;;16.82;42.89;98101.48;433121;1270;108918;-42
2022/05/29 15:59:10;;;;;;;4.40;1.40;;;;;;;16.76;43.15;98108.64;433058;1270;97906;-42
2022/05/29 16:09:17;;;;;;;5.50;1.30;;;;;;;16.58;43.35;98110.55;432514;1270;111048;-45
2022/05/29 16:19:34;;;;;;;5.20;1.40;;;;;;;16.35;43.60;98109.77;433821;1270;108625;-43
2022/05/29 16:29:45;;;;;;;12.10;1.80;;;;;;;16.17;43.71;98104.85;433622;1269;97910;-44
2022/05/29 16:50:20;;;;;;;10.60;1.60;;;;;;;15.70;44.46;98098.88;433199;1269;97943;-42
2022/05/29 17:00:29;;;;;;;4.50;1.70;;;;;;;15.40;44.94;98096.91;433140;1270;110201;-43
2022/05/29 17:10:49;;;;;;;7.20;2.20;;;;;;;15.10;45.54;98095.91;433350;1269;107590;-45
2022/05/29 17:21:02;;;;;;;4.20;1.80;;;;;;;14.93;46.19;98095.60;433261;1270;96821;-41
2022/05/29 17:31:13;;;;;;;5.30;1.60;;;;;;;14.84;46.91;98102.90;433277;1270;110939;-41
2022/05/29 17:41:21;;;;;;;7.10;1.70;;;;;;;14.72;47.58;98097.93;432988;1269;108827;-43
2022/05/29 17:51:31;;;;;;;8.00;2.70;;;;;;;14.58;48.30;98087.63;433100;1269;97492;-42
2022/05/29 18:01:41;;;;;;;13.30;4.50;;;;;;;14.43;48.83;98088.80;433313;1269;109887;-43
2022/05/29 18:11:50;;;;;;;9.10;3.40;;;;;;;14.25;48.97;98081.73;433190;1270;108850;-42
2022/05/29 18:21:58;;;;;;;5.20;2.30;;;;;;;13.98;49.30;98077.02;433283;1270;96976;-43
2022/05/29 18:32:07;;;;;;;4.60;2.20;;;;;;;13.82;50.23;98079.94;433205;1269;110997;-42
2022/05/29 18:42:13;;;;;;;10.10;3.00;;;;;;;13.58;50.74;98088.28;433339;1269;107741;-41
2022/05/29 18:52:20;;;;;;;9.00;3.20;;;;;;;13.40;51.06;98095.77;433177;1269;97896;-42
2022/05/29 19:12:35;;;;;;;5.60;3.40;;;;;;;13.29;52.82;98108.16;433356;1270;108807;-42
2022/05/29 19:22:43;;;;;;;6.90;3.90;;;;;;;13.18;53.88;98106.71;433029;1269;97903;-45
2022/05/29 19:32:50;;;;;;;12.60;3.80;;;;;;;13.10;54.83;98101.04;433258;1269;111092;-41
2022/05/29 19:42:58;;;;;;;6.30;3.70;;;;;;;13.10;55.64;98093.40;433144;1270;108810;-42
2022/05/29 19:53:04;;;;;;;8.00;3.80;;;;;;;13.07;56.08;98086.16;433147;1269;97849;-45
2022/05/29 20:03:12;;;;;;;7.80;4.20;;;;;;;13.01;56.61;98087.41;433181;1269;111270;-41
2022/05/29 20:13:19;;;;;;;7.50;4.10;;;;;;;12.79;56.86;98079.53;433157;1270;109136;-41
2022/05/29 20:23:27;;;;;;;9.00;4.00;;;;;;;12.56;57.01;98072.52;433118;1270;97281;-43
2022/05/29 20:33:35;;;;;;;9.10;4.60;;;;;;;12.41;57.24;98079.09;433068;1269;108833;-42
2022/05/29 20:43:44;;;;;;;9.20;4.90;;;;;;;12.28;57.56;98086.41;432821;1269;97749;-42
2022/05/29 20:53:51;;;;;;;5.40;2.50;;;;;;;12.18;58.26;98085.43;432962;1269;110075;-43
2022/05/29 21:03:58;;;;;;;7.00;2.60;;;;;;;11.84;59.10;98076.82;432982;1270;108930;-43
2022/05/29 21:24:14;;;;;;;4.50;3.30;;;;;;;11.57;60.70;98063.07;432504;1269;686267;-41
2022/05/29 21:44:28;;;;;;;5.70;3.40;;;;;;;11.30;61.67;98079.36;432892;1269;111325;-41
2022/05/29 21:54:36;;;;;;;8.70;4.80;;;;;;;11.45;62.59;98086.61;433019;1270;108851;-41
2022/05/29 22:04:43;;;;;;;12.20;5.50;;;;;;;11.79;62.73;98086.73;432952;1270;97992;-41
2022/05/29 22:14:50;;;;;;;11.40;6.60;;;;;;;11.59;63.13;98085.51;433008;1270;108822;-41
2022/05/29 22:24:56;;;;;;;11.60;6.70;;;;;;;11.38;63.53;98087.65;433142;1270;97916;-43
2022/05/29 22:35:02;;;;;;;16.50;6.20;;;;;;;11.30;64.16;98099.95;432822;1270;110966;-42
2022/05/29 22:45:10;;;;;;;13.20;6.30;;;;;;;11.29;64.60;98094.37;433174;1269;108891;-42
2022/05/29 22:55:19;;;;;;;14.90;7.90;;;;;;;11.49;65.09;98095.13;432851;1270;97942;-41
2022/05/29 23:05:26;;;;;;;15.40;7.70;;;;;;;11.62;65.36;98092.63;432954;1270;108991;-44
2022/05/29 23:15:33;;;;;;;13.60;6.20;;;;;;;11.31;65.42;98092.65;433094;1271;97900;-41
2022/05/29 23:25:40;;;;;;;16.20;7.40;;;;;;;11.04;65.72;98077.94;433071;1270;110929;-41
2022/05/29 23:35:47;;;;;;;11.80;5.50;;;;;;;10.81;66.39;98071.66;433019;1271;109067;-42
2022/05/29 23:45:52;;;;;;;8.10;4.40;;;;;;;10.71;66.99;98072.91;433050;1269;98618;-40
2022/05/29 23:56:00;;;;;;;7.60;4.70;;;;;;;10.58;67.28;98062.24;433074;1271;108820;-41
